createdAt,value
2022-09-23T08:02:53.253Z,24.98
2022-09-23T08:05:20.015Z,23.10
2022-09-23T08:07:46.733Z,18.70
2022-09-23T08:10:13.406Z,21.63
2022-09-23T08:12:40.096Z,17.52
2022-09-23T08:15:07.292Z,22.73
2022-09-23T08:17:34.599Z,20.15
2022-09-23T08:20:01.458Z,17.60
2022-09-23T08:22:28.221Z,17.80
2022-09-23T08:24:56.612Z,16.67
2022-09-23T08:27:23.602Z,16.75
2022-09-23T08:29:50.291Z,16.17
2022-09-23T08:32:16.934Z,15.50
2022-09-23T08:34:44.073Z,18.45
2022-09-23T08:37:11.386Z,25.20
2022-09-23T08:39:38.167Z,17.55
2022-09-23T08:42:16.379Z,14.23
2022-09-23T08:44:57.763Z,38.20
2022-09-23T08:48:10.807Z,34.42
2022-09-23T08:50:43.085Z,14.68
2022-09-23T08:53:29.658Z,20.20
2022-09-23T08:55:59.575Z,12.07
2022-09-23T08:58:47.810Z,20.63
2022-09-23T09:01:39.380Z,18.35
2022-09-23T09:04:28.163Z,21.95
2022-09-23T09:07:24.582Z,19.92
2022-09-23T09:09:59.614Z,19.63
2022-09-23T09:13:02.621Z,18.50
2022-09-23T09:15:29.555Z,21.45
2022-09-23T09:18:21.450Z,21.23
2022-09-23T09:21:08.647Z,19.13
2022-09-23T09:23:44.395Z,22.27
2022-09-23T09:26:17.137Z,11.35
2022-09-23T09:28:49.075Z,12.73
2022-09-23T09:31:42.531Z,25.45
2022-09-23T09:34:24.479Z,11.00
2022-09-23T09:37:20.833Z,9.63
2022-09-23T09:39:47.574Z,10.90
2022-09-23T09:42:21.159Z,13.32
2022-09-23T09:45:29.752Z,15.35
2022-09-23T09:48:23.314Z,16.33
2022-09-23T09:50:52.264Z,19.85
2022-09-23T09:53:27.746Z,13.27
2022-09-23T09:56:11.172Z,16.10
2022-09-23T09:58:49.959Z,15.07
2022-09-23T10:01:27.647Z,18.58
2022-09-23T10:03:59.178Z,23.52
2022-09-23T10:06:29.571Z,9.23
2022-09-23T10:09:02.300Z,6.10
2022-09-23T10:11:29.861Z,7.72
2022-09-23T10:14:05.580Z,11.18
2022-09-23T10:16:34.618Z,8.00
2022-09-23T10:19:04.106Z,8.85
2022-09-23T10:21:36.891Z,9.43
2022-09-23T10:24:08.233Z,9.77
2022-09-23T10:26:43.008Z,10.18
2022-09-23T10:29:48.302Z,24.73
2022-09-23T10:32:22.646Z,11.73
2022-09-23T10:34:53.429Z,8.75
2022-09-23T10:37:32.265Z,6.28
2022-09-23T10:40:18.618Z,7.13
2022-09-23T10:43:20.904Z,7.30
2022-09-23T10:46:09.007Z,5.00
2022-09-23T10:48:59.395Z,12.85
2022-09-23T10:51:43.860Z,4.20
2022-09-23T10:54:28.372Z,5.50
2022-09-23T10:57:00.514Z,5.15
2022-09-23T10:59:45.277Z,14.00
2022-09-23T11:02:22.071Z,6.05
2022-09-23T11:04:59.077Z,7.72
2022-09-23T11:07:40.352Z,11.57
2022-09-23T11:10:47.111Z,18.63
2022-09-23T11:13:27.978Z,7.90
2022-09-23T11:16:00.486Z,20.90
2022-09-23T11:18:39.161Z,6.97
2022-09-23T11:21:14.687Z,12.68
2022-09-23T11:23:59.788Z,19.13
2022-09-23T11:26:55.554Z,6.95
2022-09-23T11:30:13.638Z,2.88
2022-09-23T11:33:18.123Z,4.60
2022-09-23T11:35:50.848Z,5.30
2022-09-23T11:38:26.404Z,3.03
2022-09-23T11:41:01.831Z,4.65
2022-09-23T11:43:35.586Z,5.00
2022-09-23T11:46:02.314Z,4.28
2022-09-23T11:48:40.346Z,5.57
2022-09-23T11:51:11.388Z,10.68
2022-09-23T11:53:53.431Z,4.85
2022-09-23T11:56:49.473Z,3.47
2022-09-23T11:59:35.371Z,5.22
2022-09-23T12:02:30.620Z,3.88
2022-09-23T12:05:04.590Z,5.63
2022-09-23T12:07:54.182Z,7.75
2022-09-23T12:10:22.289Z,10.27
2022-09-23T12:12:58.878Z,7.63
2022-09-23T12:15:52.485Z,5.07
2022-09-23T12:18:26.152Z,6.88
2022-09-23T12:21:04.826Z,4.30
2022-09-23T12:23:49.021Z,4.03
2022-09-23T12:26:19.835Z,5.20
2022-09-23T12:28:50.405Z,6.28
2022-09-23T12:31:30.726Z,9.65
2022-09-23T12:34:00.322Z,5.40
2022-09-23T12:36:30.152Z,4.50
2022-09-23T12:39:17.837Z,3.72
2022-09-23T12:41:49.308Z,5.43
2022-09-23T12:44:42.047Z,4.53
2022-09-23T12:47:14.993Z,15.45
2022-09-23T12:49:42.679Z,15.80
2022-09-23T12:52:21.514Z,14.50
2022-09-23T12:54:50.458Z,6.43
2022-09-23T12:57:35.738Z,8.77
2022-09-23T13:00:14.400Z,5.38
2022-09-23T13:02:47.014Z,6.57
2022-09-23T13:05:44.496Z,6.22
2022-09-23T13:08:20.800Z,7.22
2022-09-23T13:10:49.799Z,8.07
2022-09-23T13:13:41.884Z,7.38
2022-09-23T13:16:26.296Z,6.38
2022-09-23T13:18:54.748Z,5.75
2022-09-23T13:21:43.879Z,9.90
2022-09-23T13:24:13.580Z,4.97
2022-09-23T13:26:45.761Z,8.23
2022-09-23T13:29:22.400Z,7.40
2022-09-23T13:31:49.356Z,4.97
2022-09-23T13:34:21.528Z,4.35
2022-09-23T13:36:48.994Z,7.00
2022-09-23T13:39:27.841Z,4.72
2022-09-23T13:42:01.041Z,4.83
2022-09-23T13:44:28.869Z,5.03
2022-09-23T13:46:59.716Z,9.57
2022-09-23T13:49:35.249Z,11.63
2022-09-23T13:52:02.908Z,8.00
2022-09-23T13:54:38.261Z,5.38
2022-09-23T13:57:05.088Z,11.18
2022-09-23T13:59:38.044Z,9.82
2022-09-23T14:02:10.790Z,11.98
2022-09-23T14:04:37.604Z,11.18
2022-09-23T14:07:06.927Z,4.75
2022-09-23T14:09:38.036Z,6.60
2022-09-23T14:12:06.608Z,10.20
2022-09-23T14:14:37.200Z,6.82
2022-09-23T14:17:06.706Z,3.88
2022-09-23T14:19:35.929Z,5.20
2022-09-23T14:22:03.831Z,18.80
2022-09-23T14:24:32.293Z,9.50
2022-09-23T14:27:08.633Z,4.65
2022-09-23T14:29:43.914Z,11.32
2022-09-23T14:32:21.162Z,9.82
2022-09-23T14:34:50.669Z,6.97
2022-09-23T14:38:04.540Z,6.35
2022-09-23T14:40:35.268Z,8.80
2022-09-23T14:43:16.668Z,11.55
2022-09-23T14:45:50.619Z,8.60
2022-09-23T14:48:23.623Z,15.70
2022-09-23T14:50:54.973Z,16.15
2022-09-23T14:53:24.605Z,215.75
2022-09-23T14:55:53.137Z,90.20
2022-09-23T14:58:25.695Z,18.50
2022-09-23T15:01:00.163Z,10.05
2022-09-23T15:03:28.617Z,12.30
2022-09-23T15:06:08.879Z,6.88
2022-09-23T15:08:36.085Z,6.10
2022-09-23T15:11:07.851Z,6.53
2022-09-23T15:13:40.730Z,6.70
2022-09-23T15:16:08.290Z,6.72
2022-09-23T15:18:38.054Z,8.35
2022-09-23T15:21:17.898Z,11.30
2022-09-23T15:26:17.050Z,11.00
2022-09-23T15:28:44.791Z,8.43
2022-09-23T15:31:19.973Z,5.88
2022-09-23T15:33:48.404Z,9.23
2022-09-23T15:36:21.775Z,5.68
2022-09-23T15:38:49.899Z,5.65
2022-09-23T15:41:17.986Z,5.60
2022-09-23T15:43:44.687Z,5.65
2022-09-23T15:46:24.048Z,7.00
2022-09-23T15:48:59.076Z,6.32
2022-09-23T15:51:27.124Z,7.07
2022-09-23T15:53:55.597Z,10.05
2022-09-23T15:56:23.543Z,17.00
2022-09-23T15:58:50.965Z,18.17
2022-09-23T16:01:33.178Z,182.45
2022-09-23T16:04:04.012Z,175.32
2022-09-23T16:06:32.528Z,16.63
2022-09-23T16:08:59.156Z,9.68
2022-09-23T16:11:31.190Z,8.88
2022-09-23T16:13:59.594Z,14.52
2022-09-23T16:16:28.175Z,10.43
2022-09-23T16:18:55.231Z,38.15
2022-09-23T16:21:26.553Z,23.08
2022-09-23T16:23:57.828Z,17.23
2022-09-23T16:26:27.429Z,11.10
2022-09-23T16:28:55.805Z,8.77
2022-09-23T16:31:31.497Z,12.10
2022-09-23T16:34:03.669Z,10.02
2022-09-23T16:36:33.792Z,12.95
2022-09-23T16:39:06.225Z,28.88
2022-09-23T16:41:33.694Z,15.85
2022-09-23T16:44:04.568Z,21.23
2022-09-23T16:46:31.918Z,9.13
2022-09-23T16:49:01.725Z,9.15
2022-09-23T16:51:30.047Z,7.10
2022-09-23T16:53:58.943Z,12.45
2022-09-23T16:56:28.947Z,8.57
2022-09-23T16:58:57.643Z,15.40
2022-09-23T17:01:45.766Z,8.65
2022-09-23T17:04:14.714Z,12.77
2022-09-23T17:06:48.437Z,7.75
2022-09-23T17:09:15.192Z,10.68
2022-09-23T17:11:49.147Z,8.20
2022-09-23T17:14:16.743Z,25.02
2022-09-23T17:16:44.240Z,10.80
2022-09-23T17:19:12.385Z,9.68
2022-09-23T17:21:39.773Z,13.48
2022-09-23T17:24:07.119Z,10.48
2022-09-23T17:26:35.529Z,18.13
2022-09-23T17:29:03.596Z,16.67
2022-09-23T17:31:30.842Z,10.68
2022-09-23T17:33:58.234Z,11.95
2022-09-23T17:36:25.681Z,9.65
2022-09-23T17:38:55.594Z,10.25
2022-09-23T17:43:54.918Z,17.27
2022-09-23T17:46:22.685Z,9.63
2022-09-23T17:48:49.901Z,11.43
2022-09-23T17:51:21.720Z,21.00
2022-09-23T17:53:49.841Z,15.00
2022-09-23T17:56:25.096Z,34.08
2022-09-23T17:58:52.837Z,21.42
2022-09-23T18:01:24.884Z,36.53
2022-09-23T18:03:55.911Z,26.58
2022-09-23T18:06:25.216Z,16.95
2022-09-23T18:08:52.503Z,17.38
2022-09-23T18:11:20.671Z,15.88
2022-09-23T18:13:55.812Z,17.95
2022-09-23T18:16:25.679Z,31.67
2022-09-23T18:21:26.438Z,70.32
2022-09-23T18:23:59.770Z,34.63
2022-09-23T18:26:35.262Z,35.70
2022-09-23T18:29:03.805Z,28.98
2022-09-23T18:31:35.176Z,25.52
2022-09-23T18:34:13.481Z,34.10
2022-09-23T18:36:40.523Z,83.60
2022-09-23T18:39:07.362Z,38.33
2022-09-23T18:41:35.213Z,23.00
2022-09-23T18:44:02.630Z,25.77
2022-09-23T18:46:30.653Z,17.52
2022-09-23T18:49:17.010Z,60.88
2022-09-23T18:51:56.483Z,43.65
2022-09-23T18:54:28.138Z,40.92
2022-09-23T18:56:55.452Z,29.15
2022-09-23T18:59:26.535Z,21.67
2022-09-23T19:01:56.754Z,16.08
2022-09-23T19:04:25.360Z,27.17
2022-09-23T19:06:54.003Z,21.80
2022-09-23T19:09:20.967Z,19.67
2022-09-23T19:11:51.914Z,18.23
2022-09-23T19:14:19.154Z,13.15
2022-09-23T19:16:46.030Z,15.48
2022-09-23T19:19:12.713Z,16.40
2022-09-23T19:21:39.501Z,18.80
2022-09-23T19:24:08.227Z,18.17
2022-09-23T19:26:40.407Z,18.23
2022-09-23T19:29:15.482Z,19.17
2022-09-23T19:31:43.476Z,21.38
2022-09-23T19:34:29.270Z,22.23
2022-09-23T19:36:58.063Z,26.52
2022-09-23T19:39:28.030Z,21.73
2022-09-23T19:44:25.210Z,26.48
2022-09-23T19:46:56.340Z,49.33
2022-09-23T19:49:25.001Z,20.23
2022-09-23T19:51:53.323Z,21.20
2022-09-23T19:54:20.959Z,19.33
2022-09-23T19:56:50.891Z,18.30
2022-09-23T19:59:19.376Z,18.38
2022-09-23T20:01:47.562Z,20.23
2022-09-23T20:04:16.024Z,22.98
2022-09-23T20:06:43.317Z,18.98
2022-09-23T20:09:10.339Z,33.58
2022-09-23T20:11:37.310Z,38.08
2022-09-23T20:14:06.226Z,30.73
2022-09-23T20:16:35.472Z,23.48
2022-09-23T20:19:04.427Z,24.38
2022-09-23T20:21:31.858Z,23.08
2022-09-23T20:23:58.739Z,24.38
2022-09-23T20:26:43.950Z,22.88
2022-09-23T20:29:11.445Z,26.42
2022-09-23T20:31:40.507Z,22.90
2022-09-23T20:34:10.871Z,95.28
2022-09-23T20:36:40.636Z,523.70
2022-09-23T20:39:08.590Z,268.30
2022-09-23T20:41:38.099Z,132.73
2022-09-23T20:44:07.884Z,78.95
2022-09-23T20:46:36.021Z,71.00
2022-09-23T20:49:09.238Z,41.80
2022-09-23T20:51:39.419Z,51.30
2022-09-23T20:56:34.027Z,36.13
2022-09-23T20:59:02.059Z,36.70
2022-09-23T21:01:29.756Z,41.30
2022-09-23T21:03:56.519Z,41.30
2022-09-23T21:06:26.392Z,33.92
2022-09-23T21:08:54.706Z,39.28
2022-09-23T21:11:22.220Z,31.20
2022-09-23T21:13:51.978Z,46.05
2022-09-23T21:16:22.239Z,89.28
2022-09-23T21:18:50.597Z,200.57
2022-09-23T21:21:19.778Z,163.88
2022-09-23T21:23:47.996Z,110.10
2022-09-23T21:26:20.475Z,62.53
2022-09-23T21:28:58.590Z,39.10
2022-09-23T21:31:28.109Z,39.05
2022-09-23T21:34:01.893Z,38.22
2022-09-23T21:36:30.560Z,38.58
2022-09-23T21:38:58.160Z,37.95
2022-09-23T21:41:25.436Z,40.83
2022-09-23T21:43:52.194Z,37.88
2022-09-23T21:46:20.805Z,41.17
2022-09-23T21:48:50.821Z,41.80
2022-09-23T21:51:23.342Z,36.83
2022-09-23T21:53:50.043Z,37.78
2022-09-23T21:56:37.812Z,37.30
2022-09-23T21:59:05.439Z,66.75
2022-09-23T22:01:35.222Z,47.00
2022-09-23T22:04:09.302Z,40.97
2022-09-23T22:06:38.393Z,41.58
2022-09-23T22:09:09.033Z,46.00
2022-09-23T22:11:55.629Z,53.33
2022-09-23T22:14:26.402Z,43.72
2022-09-23T22:16:58.557Z,48.97
2022-09-23T22:19:44.369Z,48.15
2022-09-23T22:22:16.758Z,44.00
2022-09-23T22:27:12.279Z,51.00
2022-09-23T22:29:57.754Z,52.13
2022-09-23T22:32:43.873Z,44.25
2022-09-23T22:35:13.952Z,47.88
2022-09-23T22:40:10.212Z,50.13
2022-09-23T22:42:37.662Z,60.33
2022-09-23T22:45:06.183Z,55.42
2022-09-23T22:47:37.311Z,46.97
2022-09-23T22:50:07.156Z,53.25
2022-09-23T22:52:33.957Z,56.40
2022-09-23T22:55:01.537Z,64.80
2022-09-23T22:57:28.863Z,57.75
2022-09-23T22:59:55.718Z,58.92
2022-09-23T23:02:23.856Z,59.78
2022-09-23T23:04:51.392Z,68.15
2022-09-23T23:07:21.258Z,65.30
2022-09-23T23:12:20.592Z,58.90
2022-09-23T23:14:48.572Z,63.40
2022-09-23T23:17:15.838Z,74.53
2022-09-23T23:19:42.535Z,80.15
2022-09-23T23:22:09.194Z,77.20
2022-09-23T23:24:35.873Z,68.38
2022-09-23T23:27:02.526Z,61.35
2022-09-23T23:29:29.242Z,58.35
2022-09-23T23:31:57.303Z,69.32
2022-09-23T23:34:24.004Z,60.53
2022-09-23T23:36:57.625Z,66.45
2022-09-23T23:39:25.671Z,64.60
2022-09-23T23:41:56.907Z,65.18
2022-09-23T23:44:25.036Z,63.25
2022-09-23T23:46:54.404Z,57.90
2022-09-23T23:49:21.711Z,61.88
2022-09-23T23:51:48.782Z,71.25
2022-09-23T23:54:15.550Z,67.07
2022-09-23T23:56:42.406Z,67.07
2022-09-23T23:59:09.027Z,73.72
